Time;durP1;ratioP1;P1;durP2;ratioP2;P2;SDS_P1;SDS_P2;PMS_P1;PMS_P2;Temp;Humidity;BMP_temperature;BMP_pressure;BME280_temperature;BME280_humidity;BME280_pressure;Samples;Min_cycle;Max_cycle;Signal;HPM_P1;HPM_P2
2022/07/01 00:01:48;;;;;;;2.90;2.53;;;;;;;;;;6166001;23;20075;-46
2022/07/01 00:04:14;;;;;;;4.38;2.13;;;;;;;;;;6167981;23;20023;-48
2022/07/01 00:06:41;;;;;;;3.50;2.05;;;;;;;;;;6148849;23;20075;-46
2022/07/01 00:09:08;;;;;;;4.13;2.65;;;;;;;;;;6173289;23;20020;-46
2022/07/01 00:11:35;;;;;;;7.88;2.67;;;;;;;;;;6160315;23;20025;-51
2022/07/01 00:14:01;;;;;;;3.47;2.40;;;;;;;;;;6170026;23;20024;-46
2022/07/01 00:16:29;;;;;;;6.38;2.47;;;;;;;;;;6169040;23;20009;-46
2022/07/01 00:18:56;;;;;;;6.65;2.20;;;;;;;;;;6139834;23;20017;-47
2022/07/01 00:21:22;;;;;;;7.00;2.78;;;;;;;;;;6175551;23;20562;-49
2022/07/01 00:23:48;;;;;;;10.23;2.67;;;;;;;;;;6165482;23;20013;-45
2022/07/01 00:26:15;;;;;;;3.75;2.55;;;;;;;;;;6175665;23;20021;-51
2022/07/01 00:28:41;;;;;;;7.20;3.10;;;;;;;;;;6138488;23;20017;-45
2022/07/01 00:31:08;;;;;;;4.88;2.13;;;;;;;;;;6174316;23;20045;-49
2022/07/01 00:33:36;;;;;;;9.43;3.08;;;;;;;;;;6161518;23;20029;-45
2022/07/01 00:36:02;;;;;;;7.70;2.70;;;;;;;;;;6175036;23;20429;-46
2022/07/01 00:38:29;;;;;;;4.55;2.30;;;;;;;;;;6153033;23;20020;-45
2022/07/01 00:40:56;;;;;;;5.72;2.97;;;;;;;;;;6179656;23;20017;-45
2022/07/01 00:43:24;;;;;;;7.13;2.20;;;;;;;;;;6163026;23;20017;-46
2022/07/01 00:45:51;;;;;;;6.20;2.45;;;;;;;;;;6176080;23;20017;-46
2022/07/01 00:48:19;;;;;;;9.93;3.25;;;;;;;;;;6161323;23;20013;-47
2022/07/01 00:50:47;;;;;;;11.38;2.40;;;;;;;;;;6173212;23;20044;-46
2022/07/01 00:53:13;;;;;;;7.68;2.80;;;;;;;;;;6168991;23;20028;-47
2022/07/01 00:55:40;;;;;;;5.60;2.45;;;;;;;;;;6174640;23;20013;-47
2022/07/01 00:58:07;;;;;;;6.15;2.63;;;;;;;;;;6163654;23;20080;-46
2022/07/01 01:00:34;;;;;;;7.65;2.65;;;;;;;;;;6169103;23;20019;-46
2022/07/01 01:03:00;;;;;;;5.90;2.75;;;;;;;;;;6165428;23;20017;-46
2022/07/01 01:05:27;;;;;;;11.23;3.65;;;;;;;;;;6170031;23;20013;-47
2022/07/01 01:07:55;;;;;;;6.97;3.15;;;;;;;;;;6164845;23;20013;-45
2022/07/01 01:10:23;;;;;;;4.22;2.75;;;;;;;;;;6175232;23;20076;-45
2022/07/01 01:12:50;;;;;;;8.88;2.83;;;;;;;;;;6163128;23;20448;-48
2022/07/01 01:15:18;;;;;;;7.03;2.60;;;;;;;;;;6175838;23;20048;-46
2022/07/01 01:17:46;;;;;;;7.20;3.42;;;;;;;;;;6174637;23;20490;-45
2022/07/01 01:20:15;;;;;;;7.60;3.25;;;;;;;;;;6156898;23;20072;-47
2022/07/01 01:22:43;;;;;;;8.18;3.13;;;;;;;;;;6173394;23;20036;-46
2022/07/01 01:25:09;;;;;;;9.95;3.38;;;;;;;;;;6147060;23;20468;-45
2022/07/01 01:27:36;;;;;;;6.47;3.20;;;;;;;;;;6149155;23;20024;-47
2022/07/01 01:30:04;;;;;;;6.18;3.17;;;;;;;;;;6176688;23;20040;-45
2022/07/01 01:32:33;;;;;;;6.65;3.00;;;;;;;;;;6169896;23;20044;-46
2022/07/01 01:35:00;;;;;;;9.63;4.35;;;;;;;;;;6172713;23;20350;-45
2022/07/01 01:37:27;;;;;;;8.50;3.22;;;;;;;;;;6174162;23;20069;-45
2022/07/01 01:39:55;;;;;;;9.15;3.28;;;;;;;;;;6169043;23;20021;-47
2022/07/01 01:42:21;;;;;;;7.85;3.47;;;;;;;;;;6171432;23;20024;-45
2022/07/01 01:44:49;;;;;;;3.97;3.08;;;;;;;;;;6160905;23;20423;-47
2022/07/01 01:47:15;;;;;;;13.98;3.55;;;;;;;;;;6175894;23;20023;-46
2022/07/01 01:49:42;;;;;;;9.77;3.25;;;;;;;;;;6171765;23;20017;-46
2022/07/01 01:52:08;;;;;;;8.30;3.30;;;;;;;;;;6175074;23;20080;-46
2022/07/01 01:54:36;;;;;;;5.97;3.65;;;;;;;;;;6166992;23;20543;-46
2022/07/01 01:57:04;;;;;;;6.13;3.47;;;;;;;;;;6178114;23;20016;-46
2022/07/01 01:59:31;;;;;;;4.43;3.10;;;;;;;;;;6173448;23;20444;-46
2022/07/01 02:01:57;;;;;;;8.43;2.95;;;;;;;;;;6156875;23;20017;-47
2022/07/01 02:04:24;;;;;;;5.38;3.08;;;;;;;;;;6176874;23;20013;-47
2022/07/01 02:06:50;;;;;;;7.38;2.67;;;;;;;;;;6166894;23;20013;-48
2022/07/01 02:09:17;;;;;;;9.00;3.45;;;;;;;;;;6171915;23;20013;-45
2022/07/01 02:11:43;;;;;;;3.97;3.50;;;;;;;;;;6166136;23;20017;-47
2022/07/01 02:14:11;;;;;;;6.05;3.63;;;;;;;;;;6147538;23;20321;-45
2022/07/01 02:16:37;;;;;;;9.73;3.30;;;;;;;;;;6161356;23;20013;-46
2022/07/01 02:19:04;;;;;;;7.03;4.13;;;;;;;;;;6148120;23;20013;-46
2022/07/01 02:21:30;;;;;;;8.25;3.42;;;;;;;;;;6164474;23;20017;-45
2022/07/01 02:23:57;;;;;;;8.40;3.50;;;;;;;;;;6178209;23;20014;-47
2022/07/01 02:26:24;;;;;;;8.98;3.97;;;;;;;;;;6171037;23;20013;-46
2022/07/01 02:28:50;;;;;;;6.97;3.28;;;;;;;;;;6173230;23;20013;-48
2022/07/01 02:31:18;;;;;;;7.82;3.65;;;;;;;;;;6156646;23;20017;-45
2022/07/01 02:33:44;;;;;;;11.07;3.40;;;;;;;;;;6174872;23;20021;-47
2022/07/01 02:36:11;;;;;;;8.10;3.70;;;;;;;;;;6168424;23;20051;-47
2022/07/01 02:38:37;;;;;;;5.68;3.95;;;;;;;;;;6170428;23;20040;-47
2022/07/01 02:41:04;;;;;;;7.30;3.67;;;;;;;;;;6169341;23;20013;-47
2022/07/01 02:43:31;;;;;;;8.55;3.80;;;;;;;;;;6148381;23;20072;-47
2022/07/01 02:45:57;;;;;;;10.02;4.38;;;;;;;;;;6169785;23;20013;-45
2022/07/01 02:48:25;;;;;;;7.55;4.15;;;;;;;;;;6175132;23;20017;-45
2022/07/01 02:50:51;;;;;;;6.90;4.25;;;;;;;;;;6164893;23;20277;-48
2022/07/01 02:53:18;;;;;;;5.38;4.30;;;;;;;;;;6171920;23;20388;-46
2022/07/01 02:55:45;;;;;;;6.95;3.90;;;;;;;;;;6166632;23;20021;-47
2022/07/01 02:58:11;;;;;;;8.65;4.57;;;;;;;;;;6167724;23;20079;-46
2022/07/01 03:00:38;;;;;;;9.32;3.83;;;;;;;;;;6157228;23;20013;-47
2022/07/01 03:03:05;;;;;;;10.10;4.20;;;;;;;;;;6172801;23;20013;-48
2022/07/01 03:05:33;;;;;;;9.98;4.55;;;;;;;;;;6177701;23;20049;-47
2022/07/01 03:07:59;;;;;;;10.48;4.50;;;;;;;;;;6169307;23;20352;-47
2022/07/01 03:10:26;;;;;;;9.40;4.47;;;;;;;;;;6176265;23;20065;-46
2022/07/01 03:12:53;;;;;;;7.22;3.80;;;;;;;;;;6165399;23;20017;-46
2022/07/01 03:15:19;;;;;;;7.40;4.07;;;;;;;;;;6169004;23;20099;-45
2022/07/01 03:17:47;;;;;;;7.53;4.22;;;;;;;;;;6158740;23;20506;-45
2022/07/01 03:20:15;;;;;;;10.43;4.20;;;;;;;;;;6175504;23;20432;-45
2022/07/01 03:22:44;;;;;;;8.77;4.45;;;;;;;;;;6173196;23;20013;-46
2022/07/01 03:25:11;;;;;;;11.02;4.20;;;;;;;;;;6168893;23;20602;-48
2022/07/01 03:27:38;;;;;;;7.90;4.38;;;;;;;;;;6165322;23;20040;-48
2022/07/01 03:30:06;;;;;;;7.32;4.25;;;;;;;;;;6176955;23;20017;-46
2022/07/01 03:32:33;;;;;;;7.15;4.10;;;;;;;;;;6159022;23;20017;-44
2022/07/01 03:35:00;;;;;;;6.63;4.32;;;;;;;;;;6174369;23;20263;-46
2022/07/01 03:37:26;;;;;;;6.40;4.90;;;;;;;;;;6175244;23;20017;-48
2022/07/01 03:39:55;;;;;;;8.73;4.10;;;;;;;;;;6161929;23;20380;-46
2022/07/01 03:42:21;;;;;;;8.98;4.75;;;;;;;;;;6177538;23;20013;-46
2022/07/01 03:44:48;;;;;;;8.20;3.92;;;;;;;;;;6166271;23;20452;-46
2022/07/01 03:47:14;;;;;;;9.65;4.60;;;;;;;;;;6154989;23;20017;-45
2022/07/01 03:49:41;;;;;;;5.20;4.00;;;;;;;;;;6168132;23;20020;-44
2022/07/01 03:52:08;;;;;;;5.25;4.03;;;;;;;;;;6166571;23;20013;-45
2022/07/01 03:54:37;;;;;;;7.82;4.50;;;;;;;;;;6154519;23;20049;-45
2022/07/01 03:57:06;;;;;;;19.10;4.45;;;;;;;;;;6161424;23;20019;-48
2022/07/01 03:59:35;;;;;;;12.67;4.07;;;;;;;;;;6168762;23;20013;-47
2022/07/01 04:02:02;;;;;;;6.25;3.70;;;;;;;;;;6173102;23;20047;-47
2022/07/01 04:04:28;;;;;;;8.65;3.72;;;;;;;;;;6167536;23;20014;-46
2022/07/01 04:06:56;;;;;;;7.38;4.07;;;;;;;;;;6174520;23;20017;-46
2022/07/01 04:09:23;;;;;;;11.60;5.13;;;;;;;;;;6173540;23;20013;-46
2022/07/01 04:11:49;;;;;;;11.57;4.43;;;;;;;;;;6168252;23;20683;-45
2022/07/01 04:14:17;;;;;;;8.45;4.15;;;;;;;;;;6138376;23;20021;-45
2022/07/01 04:16:44;;;;;;;6.97;4.15;;;;;;;;;;6166248;23;20025;-45
2022/07/01 04:19:12;;;;;;;6.93;4.55;;;;;;;;;;6171736;23;20009;-44
2022/07/01 04:24:24;;;;;;;7.13;3.67;;;;;;;;;;6175998;23;20325;-46
2022/07/01 04:26:50;;;;;;;9.57;4.72;;;;;;;;;;6146515;23;20027;-46
2022/07/01 04:29:18;;;;;;;5.95;4.75;;;;;;;;;;6175077;23;20040;-45
2022/07/01 04:31:45;;;;;;;7.03;4.10;;;;;;;;;;6155733;23;20494;-45
2022/07/01 04:34:12;;;;;;;16.70;4.68;;;;;;;;;;6177897;23;20013;-45
2022/07/01 04:36:38;;;;;;;10.75;4.20;;;;;;;;;;6162428;23;20016;-48
2022/07/01 04:39:05;;;;;;;8.82;4.18;;;;;;;;;;6160865;23;20013;-47
2022/07/01 04:44:17;;;;;;;7.60;4.25;;;;;;;;;;6173875;23;20040;-47
2022/07/01 04:46:44;;;;;;;6.38;4.35;;;;;;;;;;6163670;23;20431;-44
2022/07/01 04:49:11;;;;;;;9.73;4.03;;;;;;;;;;6173388;23;20013;-48
2022/07/01 04:51:38;;;;;;;6.10;3.92;;;;;;;;;;6161958;23;20535;-44
2022/07/01 04:54:05;;;;;;;7.78;4.60;;;;;;;;;;6151738;23;20044;-45
2022/07/01 04:56:33;;;;;;;9.35;4.30;;;;;;;;;;6166534;23;20025;-46
2022/07/01 04:59:00;;;;;;;8.40;4.57;;;;;;;;;;6176653;23;20013;-48
2022/07/01 05:01:26;;;;;;;10.27;4.60;;;;;;;;;;6172122;23;20463;-46
2022/07/01 05:03:54;;;;;;;8.52;4.05;;;;;;;;;;6180176;23;20185;-47
2022/07/01 05:06:20;;;;;;;7.25;4.20;;;;;;;;;;6169609;23;20218;-46
2022/07/01 05:08:47;;;;;;;10.95;4.25;;;;;;;;;;6177069;23;20019;-47
2022/07/01 05:11:13;;;;;;;8.90;5.72;;;;;;;;;;6168801;23;20048;-46
2022/07/01 05:13:40;;;;;;;8.73;4.50;;;;;;;;;;6176249;23;20017;-46
2022/07/01 05:16:08;;;;;;;6.22;4.30;;;;;;;;;;6167736;23;20064;-46
2022/07/01 05:24:05;;;;;;;8.27;4.78;;;;;;;;;;6168152;23;20491;-47
2022/07/01 05:26:32;;;;;;;5.97;4.43;;;;;;;;;;6177966;23;20076;-46
2022/07/01 05:28:58;;;;;;;5.35;3.88;;;;;;;;;;6165653;23;20403;-44
2022/07/01 05:31:25;;;;;;;7.03;3.70;;;;;;;;;;6176127;23;20021;-45
2022/07/01 05:33:51;;;;;;;5.65;4.22;;;;;;;;;;6160206;23;20315;-47
2022/07/01 05:36:18;;;;;;;8.48;4.35;;;;;;;;;;6172170;23;20096;-47
2022/07/01 05:38:46;;;;;;;9.63;4.43;;;;;;;;;;6144040;23;20044;-47
2022/07/01 05:41:16;;;;;;;18.00;5.07;;;;;;;;;;6182809;23;20013;-48
2022/07/01 05:43:42;;;;;;;9.38;4.70;;;;;;;;;;6173658;23;20244;-47
2022/07/01 05:46:10;;;;;;;13.02;4.88;;;;;;;;;;6142917;23;20021;-47
2022/07/01 05:48:37;;;;;;;9.98;4.60;;;;;;;;;;6173837;23;20013;-47
2022/07/01 05:51:03;;;;;;;8.35;4.47;;;;;;;;;;6142814;23;20021;-47
2022/07/01 05:53:30;;;;;;;8.07;4.65;;;;;;;;;;6177220;23;20025;-46
2022/07/01 05:55:58;;;;;;;6.82;4.03;;;;;;;;;;6167520;23;20020;-46
2022/07/01 05:58:25;;;;;;;9.07;4.90;;;;;;;;;;6175716;23;20041;-47
2022/07/01 06:00:52;;;;;;;6.32;4.65;;;;;;;;;;6161628;23;20013;-48
2022/07/01 06:03:18;;;;;;;12.45;4.90;;;;;;;;;;6144119;23;20013;-44
2022/07/01 06:05:45;;;;;;;12.20;4.97;;;;;;;;;;6164406;23;20013;-46
2022/07/01 06:08:11;;;;;;;11.63;5.53;;;;;;;;;;6177167;23;20063;-47
2022/07/01 06:10:38;;;;;;;13.10;5.10;;;;;;;;;;6167082;23;20017;-46
2022/07/01 06:13:06;;;;;;;9.30;4.50;;;;;;;;;;6176186;23;20017;-45
2022/07/01 06:15:33;;;;;;;9.98;5.47;;;;;;;;;;6163507;23;20025;-46
2022/07/01 06:17:59;;;;;;;12.90;5.47;;;;;;;;;;6174373;23;20046;-47
2022/07/01 06:20:26;;;;;;;9.77;4.95;;;;;;;;;;6163444;23;20040;-48
2022/07/01 06:22:52;;;;;;;6.22;4.70;;;;;;;;;;6173260;23;20013;-46
2022/07/01 06:25:19;;;;;;;9.65;5.20;;;;;;;;;;6175734;23;20511;-45
2022/07/01 06:27:46;;;;;;;10.70;4.97;;;;;;;;;;6173131;23;20037;-45
2022/07/01 06:30:14;;;;;;;11.60;6.18;;;;;;;;;;6164126;23;20013;-45
2022/07/01 06:32:41;;;;;;;11.48;5.35;;;;;;;;;;6168441;23;20020;-48
2022/07/01 06:35:08;;;;;;;7.75;5.03;;;;;;;;;;6175227;23;20021;-45
2022/07/01 06:37:35;;;;;;;12.35;5.43;;;;;;;;;;6165852;23;20025;-47
2022/07/01 06:40:02;;;;;;;9.10;4.75;;;;;;;;;;6165406;23;20037;-49
2022/07/01 06:42:29;;;;;;;8.77;4.60;;;;;;;;;;6171192;23;20496;-44
2022/07/01 06:44:55;;;;;;;11.60;5.05;;;;;;;;;;6173385;23;20021;-47
2022/07/01 06:47:23;;;;;;;6.35;4.88;;;;;;;;;;6176372;23;20043;-48
2022/07/01 06:49:49;;;;;;;11.13;4.88;;;;;;;;;;6160042;23;20017;-45
2022/07/01 06:52:16;;;;;;;9.07;4.43;;;;;;;;;;6170110;23;20048;-47
2022/07/01 06:54:42;;;;;;;10.07;3.90;;;;;;;;;;6168529;23;20028;-47
2022/07/01 06:57:09;;;;;;;11.07;4.15;;;;;;;;;;6170971;23;20071;-47
2022/07/01 06:59:35;;;;;;;14.80;4.60;;;;;;;;;;6169981;23;20021;-50
2022/07/01 07:02:02;;;;;;;9.23;4.32;;;;;;;;;;6175390;23;20024;-46
2022/07/01 07:04:30;;;;;;;7.65;4.47;;;;;;;;;;6158153;23;20387;-45
2022/07/01 07:06:56;;;;;;;5.00;3.85;;;;;;;;;;6175171;23;20013;-48
2022/07/01 07:09:23;;;;;;;9.10;4.85;;;;;;;;;;6170044;23;20036;-46
2022/07/01 07:11:49;;;;;;;7.25;4.28;;;;;;;;;;6168631;23;20144;-47
2022/07/01 07:14:16;;;;;;;8.23;4.72;;;;;;;;;;6172494;23;20067;-47
2022/07/01 07:16:42;;;;;;;12.45;6.20;;;;;;;;;;6169926;23;20049;-47
2022/07/01 07:19:10;;;;;;;7.78;4.47;;;;;;;;;;6166907;23;20040;-49
2022/07/01 07:21:38;;;;;;;7.88;3.78;;;;;;;;;;6171673;23;20040;-48
2022/07/01 07:24:05;;;;;;;7.95;3.92;;;;;;;;;;6163454;23;20048;-45
2022/07/01 07:26:32;;;;;;;8.52;4.30;;;;;;;;;;6178793;23;20009;-46
2022/07/01 07:28:59;;;;;;;12.10;4.80;;;;;;;;;;6168774;23;20071;-47
2022/07/01 07:31:25;;;;;;;12.20;5.07;;;;;;;;;;6175523;23;20044;-45
2022/07/01 07:33:52;;;;;;;9.13;4.38;;;;;;;;;;6168531;23;20309;-46
2022/07/01 07:36:18;;;;;;;8.80;5.38;;;;;;;;;;6174589;23;20044;-47
2022/07/01 07:38:46;;;;;;;9.82;5.63;;;;;;;;;;6164277;23;20017;-45
2022/07/01 07:41:13;;;;;;;11.40;5.65;;;;;;;;;;6180680;23;20013;-45
2022/07/01 07:43:40;;;;;;;7.95;4.82;;;;;;;;;;6173882;23;20017;-46
2022/07/01 07:46:06;;;;;;;11.35;5.38;;;;;;;;;;6143571;23;20044;-47
2022/07/01 07:48:33;;;;;;;11.48;4.97;;;;;;;;;;6142169;23;20500;-46
2022/07/01 07:50:59;;;;;;;9.60;4.25;;;;;;;;;;6164571;23;20048;-47
2022/07/01 07:53:26;;;;;;;7.07;3.35;;;;;;;;;;6171149;23;20447;-46
2022/07/01 07:55:53;;;;;;;4.85;2.65;;;;;;;;;;6168088;23;20028;-47
2022/07/01 07:58:20;;;;;;;6.80;2.40;;;;;;;;;;6160434;23;20048;-47
2022/07/01 08:00:47;;;;;;;9.82;3.47;;;;;;;;;;6168475;23;20013;-45
2022/07/01 08:03:13;;;;;;;5.45;2.47;;;;;;;;;;6173403;23;20048;-46
2022/07/01 08:05:43;;;;;;;6.32;2.67;;;;;;;;;;6170128;23;20032;-46
2022/07/01 08:08:10;;;;;;;11.75;3.30;;;;;;;;;;6173209;23;20013;-47
2022/07/01 08:10:37;;;;;;;5.18;2.63;;;;;;;;;;6162876;23;20036;-46
2022/07/01 08:13:05;;;;;;;4.90;2.05;;;;;;;;;;6176504;23;20012;-47
2022/07/01 08:15:33;;;;;;;9.27;3.28;;;;;;;;;;6163694;23;20094;-46
2022/07/01 08:17:59;;;;;;;8.55;2.47;;;;;;;;;;6172840;23;20104;-47
2022/07/01 08:20:25;;;;;;;6.38;2.72;;;;;;;;;;6160412;23;20368;-47
2022/07/01 08:22:52;;;;;;;5.05;2.58;;;;;;;;;;6143470;23;20451;-46
2022/07/01 08:25:18;;;;;;;4.65;2.20;;;;;;;;;;6155934;23;20467;-46
2022/07/01 08:27:45;;;;;;;7.13;2.35;;;;;;;;;;6163135;23;20459;-45
2022/07/01 08:30:13;;;;;;;7.03;2.47;;;;;;;;;;6146165;23;20352;-46
2022/07/01 08:32:40;;;;;;;7.47;2.30;;;;;;;;;;6168929;23;20021;-48
2022/07/01 08:35:06;;;;;;;8.43;2.55;;;;;;;;;;6167018;23;20167;-46
2022/07/01 08:37:33;;;;;;;8.05;2.45;;;;;;;;;;6144849;23;20069;-45
2022/07/01 08:40:00;;;;;;;8.82;2.75;;;;;;;;;;6154506;23;20017;-45
2022/07/01 08:42:26;;;;;;;6.50;2.17;;;;;;;;;;6169946;23;20027;-46
2022/07/01 08:44:53;;;;;;;10.77;4.03;;;;;;;;;;6165940;23;20017;-46
2022/07/01 08:47:21;;;;;;;10.85;2.60;;;;;;;;;;6175581;23;20017;-47
2022/07/01 08:49:48;;;;;;;5.97;2.60;;;;;;;;;;6165009;23;20013;-46
2022/07/01 08:52:15;;;;;;;7.03;2.83;;;;;;;;;;6174999;23;20025;-45
2022/07/01 08:54:41;;;;;;;8.52;3.00;;;;;;;;;;6165598;23;20044;-46
2022/07/01 08:57:08;;;;;;;8.70;2.45;;;;;;;;;;6170448;23;20021;-45
2022/07/01 08:59:35;;;;;;;6.03;2.55;;;;;;;;;;6168137;23;20017;-47
2022/07/01 09:02:03;;;;;;;6.35;2.63;;;;;;;;;;6160297;23;20013;-45
2022/07/01 09:04:32;;;;;;;9.63;2.78;;;;;;;;;;6138568;23;20013;-46
2022/07/01 09:07:01;;;;;;;5.78;2.15;;;;;;;;;;6169497;23;20343;-45
2022/07/01 09:09:28;;;;;;;9.07;3.17;;;;;;;;;;6169057;23;20013;-51
2022/07/01 09:11:55;;;;;;;6.88;2.20;;;;;;;;;;6177435;23;20097;-46
2022/07/01 09:14:22;;;;;;;5.55;2.15;;;;;;;;;;6163677;23;20044;-45
2022/07/01 09:16:49;;;;;;;12.27;1.88;;;;;;;;;;6176125;23;20025;-45
2022/07/01 09:19:17;;;;;;;9.05;2.60;;;;;;;;;;6162820;23;20021;-48
2022/07/01 09:21:48;;;;;;;4.63;2.08;;;;;;;;;;6174262;23;20013;-46
2022/07/01 09:24:25;;;;;;;7.90;2.08;;;;;;;;;;6168618;23;20531;-46
2022/07/01 09:26:52;;;;;;;3.50;1.50;;;;;;;;;;6151113;23;20174;-47
2022/07/01 09:29:19;;;;;;;7.70;2.58;;;;;;;;;;6142482;23;20450;-47
2022/07/01 09:31:48;;;;;;;4.40;1.70;;;;;;;;;;6172911;23;20021;-46
2022/07/01 09:34:15;;;;;;;8.07;1.88;;;;;;;;;;6172170;23;20017;-49
2022/07/01 09:36:41;;;;;;;5.07;2.10;;;;;;;;;;6167741;23;20083;-46
2022/07/01 09:39:09;;;;;;;4.25;1.52;;;;;;;;;;6171710;23;20017;-47
2022/07/01 09:41:36;;;;;;;4.82;1.98;;;;;;;;;;6176396;23;20028;-51
2022/07/01 09:44:04;;;;;;;6.95;1.58;;;;;;;;;;6171082;23;20325;-46
2022/07/01 09:46:30;;;;;;;6.85;2.00;;;;;;;;;;6173713;23;20205;-47
2022/07/01 09:48:57;;;;;;;4.70;1.52;;;;;;;;;;6166302;23;20044;-46
2022/07/01 09:51:23;;;;;;;11.43;1.88;;;;;;;;;;6172828;23;20017;-46
2022/07/01 09:53:50;;;;;;;3.28;1.27;;;;;;;;;;6169473;23;20021;-46
2022/07/01 09:56:19;;;;;;;5.63;1.73;;;;;;;;;;6170146;23;20760;-45
2022/07/01 09:58:46;;;;;;;7.03;1.83;;;;;;;;;;6163878;23;20487;-45
2022/07/01 10:01:13;;;;;;;7.45;1.60;;;;;;;;;;6165015;23;20017;-49
2022/07/01 10:03:41;;;;;;;5.25;1.30;;;;;;;;;;6173683;23;20013;-47
2022/07/01 10:06:25;;;;;;;2.53;1.40;;;;;;;;;;6166356;23;20331;-45
2022/07/01 10:08:59;;;;;;;5.32;1.45;;;;;;;;;;6177798;23;20341;-45
2022/07/01 10:11:53;;;;;;;4.65;1.45;;;;;;;;;;6169205;23;20017;-50
2022/07/01 10:14:20;;;;;;;5.15;1.30;;;;;;;;;;6178121;23;20116;-45
2022/07/01 10:16:48;;;;;;;6.30;1.25;;;;;;;;;;6167716;23;20083;-48
2022/07/01 10:19:25;;;;;;;4.30;1.10;;;;;;;;;;6166912;23;20021;-46
2022/07/01 10:21:53;;;;;;;7.18;1.33;;;;;;;;;;6172639;23;20882;-49
2022/07/01 10:24:20;;;;;;;2.03;1.30;;;;;;;;;;6161671;23;20017;-45
2022/07/01 10:26:47;;;;;;;2.83;1.83;;;;;;;;;;6169332;23;20017;-48
2022/07/01 10:29:32;;;;;;;4.20;1.33;;;;;;;;;;6117630;23;20013;-46
2022/07/01 10:32:04;;;;;;;3.85;1.20;;;;;;;;;;6051471;23;20101;-46
2022/07/01 10:34:40;;;;;;;3.92;1.42;;;;;;;;;;6063891;23;20416;-46
2022/07/01 10:37:08;;;;;;;5.60;1.08;;;;;;;;;;6160407;23;20029;-46
2022/07/01 10:39:53;;;;;;;4.60;1.20;;;;;;;;;;6166279;23;20288;-45
2022/07/01 10:42:20;;;;;;;5.05;1.50;;;;;;;;;;6163391;23;20017;-49
2022/07/01 10:45:08;;;;;;;5.40;1.17;;;;;;;;;;6163435;23;20040;-46
2022/07/01 10:47:35;;;;;;;3.33;1.25;;;;;;;;;;6155957;23;20052;-46
2022/07/01 10:50:05;;;;;;;6.57;2.22;;;;;;;;;;6170342;23;20036;-45
2022/07/01 10:52:33;;;;;;;5.22;1.67;;;;;;;;;;6172112;23;20071;-44
2022/07/01 10:55:00;;;;;;;3.40;1.13;;;;;;;;;;6165584;23;20060;-45
2022/07/01 10:57:32;;;;;;;4.10;1.08;;;;;;;;;;6173476;23;20029;-46
2022/07/01 11:00:13;;;;;;;4.28;1.20;;;;;;;;;;6142340;23;20017;-45
2022/07/01 11:02:41;;;;;;;6.80;1.23;;;;;;;;;;6157682;23;20444;-48
2022/07/01 11:05:09;;;;;;;6.35;1.52;;;;;;;;;;6176584;23;20499;-45
2022/07/01 11:07:38;;;;;;;5.13;1.55;;;;;;;;;;6171009;23;20029;-48
2022/07/01 11:10:06;;;;;;;3.85;1.35;;;;;;;;;;6170464;23;20080;-46
2022/07/01 11:12:32;;;;;;;11.70;1.83;;;;;;;;;;6166739;23;20230;-46
2022/07/01 11:15:01;;;;;;;5.22;1.10;;;;;;;;;;6175427;23;20044;-46
2022/07/01 11:17:28;;;;;;;1.77;1.05;;;;;;;;;;6170292;23;20025;-47
2022/07/01 11:19:57;;;;;;;4.22;1.05;;;;;;;;;;6146028;23;20021;-45
2022/07/01 11:22:23;;;;;;;;;;;;;;;;;;6161562;23;20012;-48
2022/07/01 11:24:52;;;;;;;4.05;1.10;;;;;;;;;;6170933;23;19924;-46
2022/07/01 11:27:21;;;;;;;7.43;0.98;;;;;;;;;;6171828;23;20023;-46
2022/07/01 11:29:51;;;;;;;1.98;1.00;;;;;;;;;;6171098;23;20017;-47
2022/07/01 11:32:24;;;;;;;1.08;0.75;;;;;;;;;;6167495;23;20013;-44
2022/07/01 11:34:51;;;;;;;3.47;0.60;;;;;;;;;;6169880;23;20013;-46
2022/07/01 11:40:04;;;;;;;3.22;0.95;;;;;;;;;;6174066;23;20036;-45
2022/07/01 11:42:31;;;;;;;1.80;0.70;;;;;;;;;;6172535;23;20013;-45
2022/07/01 11:44:57;;;;;;;2.47;1.13;;;;;;;;;;6166601;23;20017;-45
2022/07/01 11:47:25;;;;;;;4.78;1.30;;;;;;;;;;6177644;23;20013;-46
2022/07/01 11:49:51;;;;;;;6.90;0.98;;;;;;;;;;6169978;23;20020;-44
2022/07/01 11:52:19;;;;;;;3.65;0.93;;;;;;;;;;6170786;23;20017;-45
2022/07/01 11:54:47;;;;;;;3.30;0.98;;;;;;;;;;6158420;23;20013;-46
2022/07/01 11:57:15;;;;;;;1.90;0.57;;;;;;;;;;6177963;23;20021;-45
2022/07/01 11:59:41;;;;;;;1.40;0.57;;;;;;;;;;6157384;23;20024;-46
2022/07/01 12:02:10;;;;;;;1.92;0.65;;;;;;;;;;6178183;23;20025;-45
2022/07/01 12:04:37;;;;;;;6.75;0.88;;;;;;;;;;6160489;23;20013;-50
2022/07/01 12:07:04;;;;;;;4.95;1.13;;;;;;;;;;6168522;23;20495;-45
2022/07/01 12:09:32;;;;;;;2.90;0.73;;;;;;;;;;6170607;23;20080;-47
2022/07/01 12:11:59;;;;;;;2.10;0.77;;;;;;;;;;6112376;23;20045;-45
2022/07/01 12:14:27;;;;;;;3.33;0.60;;;;;;;;;;6110877;23;20490;-46
2022/07/01 12:16:54;;;;;;;2.22;0.52;;;;;;;;;;6172295;23;20017;-46
2022/07/01 12:19:21;;;;;;;1.75;0.70;;;;;;;;;;6135745;23;20013;-46
2022/07/01 12:21:48;;;;;;;2.08;0.60;;;;;;;;;;6168908;23;20550;-44
2022/07/01 12:24:16;;;;;;;2.53;0.52;;;;;;;;;;6157077;23;20049;-44
2022/07/01 12:26:51;;;;;;;2.75;0.95;;;;;;;;;;6173406;23;20068;-46
2022/07/01 12:29:18;;;;;;;4.10;0.90;;;;;;;;;;6163637;23;20093;-45
2022/07/01 12:31:44;;;;;;;2.03;0.70;;;;;;;;;;6168844;23;20013;-47
2022/07/01 12:34:11;;;;;;;2.95;0.73;;;;;;;;;;6166324;23;20037;-46
2022/07/01 12:36:39;;;;;;;1.10;0.70;;;;;;;;;;6163446;23;20591;-45
2022/07/01 12:39:05;;;;;;;1.17;0.70;;;;;;;;;;6163888;23;20017;-46
2022/07/01 12:41:34;;;;;;;1.42;0.50;;;;;;;;;;6169161;23;20464;-46
2022/07/01 12:44:05;;;;;;;1.65;0.43;;;;;;;;;;6166527;23;20067;-45
2022/07/01 12:46:32;;;;;;;1.15;0.70;;;;;;;;;;6168083;23;20173;-45
2022/07/01 12:48:59;;;;;;;6.22;0.57;;;;;;;;;;6161964;23;20052;-46
2022/07/01 12:51:32;;;;;;;2.85;0.77;;;;;;;;;;6162141;23;20104;-46
2022/07/01 12:53:59;;;;;;;1.75;0.60;;;;;;;;;;6162774;23;20017;-45
2022/07/01 12:56:26;;;;;;;2.20;0.60;;;;;;;;;;6164744;23;20451;-45
2022/07/01 12:58:53;;;;;;;1.40;0.75;;;;;;;;;;6162751;23;20024;-48
2022/07/01 13:01:21;;;;;;;0.68;0.60;;;;;;;;;;6147371;23;20049;-45
2022/07/01 13:03:47;;;;;;;3.10;0.80;;;;;;;;;;6172474;23;20040;-45
2022/07/01 13:06:13;;;;;;;5.50;0.80;;;;;;;;;;6162910;23;20016;-47
2022/07/01 13:08:40;;;;;;;1.40;0.80;;;;;;;;;;6180127;23;20017;-48
2022/07/01 13:11:06;;;;;;;1.80;0.63;;;;;;;;;;6172596;23;20025;-50
2022/07/01 13:13:33;;;;;;;2.25;0.95;;;;;;;;;;6164953;23;20379;-45
2022/07/01 13:15:59;;;;;;;4.45;1.02;;;;;;;;;;6176863;23;20132;-46
2022/07/01 13:18:28;;;;;;;4.05;0.88;;;;;;;;;;6172668;23;20024;-45
2022/07/01 13:20:54;;;;;;;2.00;0.60;;;;;;;;;;6140866;23;20021;-48
2022/07/01 13:23:20;;;;;;;2.70;1.10;;;;;;;;;;6171228;23;20016;-50
2022/07/01 13:25:47;;;;;;;2.25;1.00;;;;;;;;;;6167698;23;20013;-49
2022/07/01 13:28:14;;;;;;;4.43;1.38;;;;;;;;;;6145957;23;20128;-46
2022/07/01 13:30:40;;;;;;;1.30;0.70;;;;;;;;;;6169324;23;20013;-48
2022/07/01 13:33:07;;;;;;;1.80;0.60;;;;;;;;;;6177326;23;20392;-48
2022/07/01 13:35:34;;;;;;;1.65;0.35;;;;;;;;;;6137474;23;20013;-46
2022/07/01 13:38:01;;;;;;;1.05;0.80;;;;;;;;;;6176985;23;20021;-46
2022/07/01 13:40:27;;;;;;;2.42;0.60;;;;;;;;;;6177062;23;20083;-47
2022/07/01 13:42:55;;;;;;;2.15;0.75;;;;;;;;;;6162792;23;20013;-45
2022/07/01 13:45:21;;;;;;;2.58;0.63;;;;;;;;;;6175906;23;20013;-47
2022/07/01 13:47:48;;;;;;;3.10;0.70;;;;;;;;;;6167179;23;20044;-46
2022/07/01 13:50:18;;;;;;;4.68;0.85;;;;;;;;;;6168907;23;20040;-47
2022/07/01 13:52:46;;;;;;;4.55;0.88;;;;;;;;;;6174604;23;20020;-45
2022/07/01 13:55:13;;;;;;;2.05;0.65;;;;;;;;;;6148731;23;20017;-45
2022/07/01 13:57:39;;;;;;;1.48;0.60;;;;;;;;;;6164530;23;20394;-45
2022/07/01 14:00:07;;;;;;;5.40;0.88;;;;;;;;;;6172979;23;20069;-45
2022/07/01 14:02:34;;;;;;;5.30;1.15;;;;;;;;;;6170606;23;20016;-48
2022/07/01 14:05:00;;;;;;;3.58;0.80;;;;;;;;;;6134848;23;20019;-46
2022/07/01 14:07:27;;;;;;;1.08;0.50;;;;;;;;;;6089819;23;20212;-45
2022/07/01 14:10:01;;;;;;;4.82;1.40;;;;;;;;;;6104447;23;20366;-48
2022/07/01 14:12:28;;;;;;;5.45;1.23;;;;;;;;;;6068080;23;20017;-46
2022/07/01 14:14:55;;;;;;;3.38;1.10;;;;;;;;;;6160518;23;20013;-46
2022/07/01 14:17:21;;;;;;;1.65;0.88;;;;;;;;;;6164821;23;20017;-45
2022/07/01 14:19:48;;;;;;;3.25;1.60;;;;;;;;;;6125231;23;20024;-46
2022/07/01 14:22:17;;;;;;;7.05;0.90;;;;;;;;;;6076984;23;20396;-45
2022/07/01 14:24:43;;;;;;;4.85;0.70;;;;;;;;;;6115522;23;20072;-46
2022/07/01 14:27:11;;;;;;;1.38;0.80;;;;;;;;;;6140196;23;20043;-48
2022/07/01 14:29:39;;;;;;;2.95;1.08;;;;;;;;;;6173650;23;20032;-48
2022/07/01 14:32:13;;;;;;;4.32;0.70;;;;;;;;;;6126650;23;20382;-46
2022/07/01 14:34:40;;;;;;;4.57;1.15;;;;;;;;;;6078873;23;20080;-46
2022/07/01 14:37:07;;;;;;;1.08;0.52;;;;;;;;;;6081892;23;20374;-46
2022/07/01 14:39:34;;;;;;;4.40;0.77;;;;;;;;;;6123790;23;20665;-46
2022/07/01 14:42:00;;;;;;;11.25;1.48;;;;;;;;;;6147813;23;20020;-47
2022/07/01 14:44:28;;;;;;;2.08;0.52;;;;;;;;;;6171923;23;20013;-48
2022/07/01 14:46:55;;;;;;;2.15;0.80;;;;;;;;;;6169674;23;20013;-45
2022/07/01 14:49:23;;;;;;;3.05;0.80;;;;;;;;;;6163724;23;20037;-45
2022/07/01 14:51:50;;;;;;;2.75;0.65;;;;;;;;;;6168318;23;20290;-48
2022/07/01 14:54:18;;;;;;;3.85;1.08;;;;;;;;;;6163025;23;20048;-46
2022/07/01 14:56:44;;;;;;;5.38;0.75;;;;;;;;;;6172386;23;20012;-47